createdAt,value
2018-05-23T00:02:14.113Z,4.53
2018-05-23T00:04:42.466Z,4.20
2018-05-23T00:07:11.487Z,4.20
2018-05-23T00:09:39.835Z,4.37
2018-05-23T00:12:08.211Z,4.93
2018-05-23T00:14:37.460Z,4.00
2018-05-23T00:17:05.896Z,4.30
2018-05-23T00:19:34.465Z,3.60
2018-05-23T00:22:03.081Z,4.00
2018-05-23T00:24:33.432Z,4.57
2018-05-23T00:27:01.753Z,4.63
2018-05-23T00:29:30.513Z,4.30
2018-05-23T00:31:58.848Z,4.90
2018-05-23T00:34:27.195Z,4.80
2018-05-23T00:36:56.146Z,5.13
2018-05-23T00:39:24.537Z,4.30
2018-05-23T00:41:52.825Z,5.93
2018-05-23T00:44:22.018Z,6.30
2018-05-23T00:46:50.348Z,5.17
2018-05-23T00:49:18.658Z,5.47
2018-05-23T00:51:46.994Z,5.40
2018-05-23T00:54:15.302Z,5.63
2018-05-23T00:56:43.670Z,6.03
2018-05-23T00:59:12.943Z,5.77
2018-05-23T01:01:41.303Z,6.00
2018-05-23T01:04:09.607Z,5.40
2018-05-23T01:06:38.144Z,6.83
2018-05-23T01:09:06.527Z,6.27
2018-05-23T01:11:36.030Z,6.27
2018-05-23T01:14:04.415Z,6.70
2018-05-23T01:16:32.729Z,6.90
2018-05-23T01:19:01.041Z,6.83
2018-05-23T01:21:29.382Z,6.67
2018-05-23T01:23:57.698Z,6.77
2018-05-23T01:26:26.014Z,6.23
2018-05-23T01:28:55.123Z,7.30
2018-05-23T01:31:23.452Z,6.87
2018-05-23T01:33:51.756Z,7.67
2018-05-23T01:36:21.624Z,8.67
2018-05-23T01:38:49.949Z,9.63
2018-05-23T01:41:18.269Z,10.03
2018-05-23T01:43:46.639Z,9.67
2018-05-23T01:46:15.013Z,10.27
2018-05-23T01:48:55.083Z,8.93
2018-05-23T01:51:23.406Z,9.23
2018-05-23T01:53:51.737Z,10.43
2018-05-23T01:56:20.196Z,9.70
2018-05-23T01:58:48.501Z,9.77
2018-05-23T02:01:16.845Z,10.40
2018-05-23T02:03:45.284Z,8.40
2018-05-23T02:06:13.605Z,9.53
2018-05-23T02:08:41.963Z,9.97
2018-05-23T02:11:10.364Z,9.43
2018-05-23T02:13:38.717Z,9.73
2018-05-23T02:16:07.121Z,8.63
2018-05-23T02:18:35.513Z,9.57
2018-05-23T02:21:03.896Z,10.60
2018-05-23T02:23:32.351Z,8.83
2018-05-23T02:26:00.767Z,9.10
2018-05-23T02:28:29.114Z,9.03
2018-05-23T02:30:57.407Z,8.50
2018-05-23T02:33:25.830Z,9.83
2018-05-23T02:35:54.358Z,9.03
2018-05-23T02:38:22.676Z,8.70
2018-05-23T02:40:51.109Z,9.87
2018-05-23T02:43:19.437Z,7.80
2018-05-23T02:45:47.789Z,8.47
2018-05-23T02:48:16.175Z,8.30
2018-05-23T02:50:44.537Z,8.37
2018-05-23T02:53:12.919Z,9.17
2018-05-23T02:55:41.923Z,9.80
2018-05-23T02:58:10.294Z,10.93
2018-05-23T03:00:38.678Z,12.23
2018-05-23T03:03:07.518Z,13.07
2018-05-23T03:05:35.822Z,13.90
2018-05-23T03:08:04.115Z,15.20
2018-05-23T03:10:32.485Z,14.57
2018-05-23T03:13:00.790Z,13.50
2018-05-23T03:15:29.117Z,12.50
2018-05-23T03:17:57.469Z,12.17
2018-05-23T03:20:25.788Z,13.70
2018-05-23T03:22:54.085Z,12.00
2018-05-23T03:25:22.438Z,12.77
2018-05-23T03:27:50.765Z,13.43
2018-05-23T03:30:19.094Z,11.97
2018-05-23T03:32:47.556Z,12.03
2018-05-23T03:35:15.865Z,13.37
2018-05-23T03:37:44.240Z,15.00
2018-05-23T03:40:12.768Z,12.43
2018-05-23T03:42:41.103Z,12.63
2018-05-23T03:45:09.485Z,11.10
2018-05-23T03:47:37.844Z,12.50
2018-05-23T03:50:06.236Z,11.60
2018-05-23T03:52:34.605Z,11.27
2018-05-23T03:55:03.013Z,13.20
2018-05-23T03:57:31.342Z,11.10
2018-05-23T04:00:11.472Z,12.87
2018-05-23T04:02:51.804Z,13.00
2018-05-23T04:05:31.828Z,10.97
2018-05-23T04:08:01.042Z,11.00
2018-05-23T04:10:29.382Z,10.17
2018-05-23T04:12:57.829Z,10.00
2018-05-23T04:15:26.249Z,10.80
2018-05-23T04:17:54.492Z,10.30
2018-05-23T04:20:23.013Z,11.70
2018-05-23T04:22:51.332Z,11.30
2018-05-23T04:25:19.677Z,11.00
2018-05-23T04:27:48.545Z,10.87
2018-05-23T04:30:16.894Z,10.00
2018-05-23T04:32:45.400Z,9.87
2018-05-23T04:35:13.959Z,9.37
2018-05-23T04:37:42.311Z,9.17
2018-05-23T04:40:10.689Z,10.13
2018-05-23T04:42:39.863Z,9.90
2018-05-23T04:45:08.383Z,9.43
2018-05-23T04:47:36.971Z,10.00
2018-05-23T04:50:06.333Z,8.70
2018-05-23T04:52:34.804Z,8.97
2018-05-23T04:55:03.273Z,8.57
2018-05-23T04:57:32.612Z,8.50
2018-05-23T05:00:00.979Z,8.93
2018-05-23T05:02:29.227Z,9.03
2018-05-23T05:04:57.817Z,8.07
2018-05-23T05:07:26.180Z,8.33
2018-05-23T05:09:54.531Z,7.90
2018-05-23T05:12:23.666Z,8.10
2018-05-23T05:14:51.963Z,7.50
2018-05-23T05:17:20.302Z,8.00
2018-05-23T05:19:48.722Z,7.80
2018-05-23T05:22:17.214Z,6.73
2018-05-23T05:24:45.624Z,7.90
2018-05-23T05:27:13.987Z,6.60
2018-05-23T05:29:42.415Z,7.30
2018-05-23T05:32:10.742Z,6.00
2018-05-23T05:34:39.105Z,7.37
2018-05-23T05:37:07.541Z,6.10
2018-05-23T05:39:35.878Z,6.10
2018-05-23T05:42:04.240Z,5.93
2018-05-23T05:44:32.559Z,5.60
2018-05-23T05:47:00.934Z,5.90
2018-05-23T05:49:29.457Z,5.40
2018-05-23T05:51:57.828Z,5.20
2018-05-23T05:54:26.154Z,5.07
2018-05-23T05:56:54.583Z,4.40
2018-05-23T05:59:22.884Z,5.90
2018-05-23T06:01:51.321Z,4.57
2018-05-23T06:04:19.565Z,5.40
2018-05-23T06:06:47.897Z,5.77
2018-05-23T06:09:16.235Z,5.03
2018-05-23T06:11:44.654Z,4.10
2018-05-23T06:14:13.012Z,4.90
2018-05-23T06:16:41.413Z,4.10
2018-05-23T06:19:09.963Z,5.33
2018-05-23T06:21:38.409Z,3.60
2018-05-23T06:24:06.796Z,3.70
2018-05-23T06:26:35.213Z,3.30
2018-05-23T06:29:03.590Z,3.90
2018-05-23T06:31:31.921Z,3.73
2018-05-23T06:34:00.551Z,3.40
2018-05-23T06:36:28.883Z,3.80
2018-05-23T06:38:57.208Z,3.10
2018-05-23T06:41:25.596Z,4.27
2018-05-23T06:43:53.937Z,4.23
2018-05-23T06:46:22.256Z,3.30
2018-05-23T06:48:50.659Z,3.33
2018-05-23T06:51:19.041Z,3.10
2018-05-23T06:53:47.415Z,4.73
2018-05-23T06:56:16.356Z,4.10
2018-05-23T06:58:44.836Z,5.27
2018-05-23T07:01:13.390Z,4.10
2018-05-23T07:03:42.019Z,4.37
2018-05-23T07:06:10.526Z,4.70
2018-05-23T07:08:38.963Z,3.80
2018-05-23T07:11:07.569Z,3.60
2018-05-23T07:13:35.870Z,4.33
2018-05-23T07:16:08.581Z,3.57
2018-05-23T07:18:38.544Z,5.53
2018-05-23T07:21:06.971Z,5.77
2018-05-23T07:23:35.367Z,9.97
2018-05-23T07:26:03.743Z,4.80
2018-05-23T07:28:32.075Z,4.83
2018-05-23T07:31:00.396Z,4.37
2018-05-23T07:33:29.320Z,3.90
2018-05-23T07:35:57.638Z,3.40
2018-05-23T07:38:25.985Z,2.77
2018-05-23T07:40:54.702Z,3.70
2018-05-23T07:43:23.218Z,3.23
2018-05-23T07:45:51.562Z,3.70
2018-05-23T07:48:20.695Z,4.03
2018-05-23T07:50:49.036Z,4.50
2018-05-23T07:53:17.351Z,4.50
2018-05-23T07:55:45.714Z,4.60
2018-05-23T07:58:14.095Z,5.33
2018-05-23T08:00:42.486Z,4.83
2018-05-23T08:03:11.081Z,4.77
2018-05-23T08:05:39.412Z,5.50
2018-05-23T08:08:07.809Z,4.33
2018-05-23T08:10:43.351Z,5.10
2018-05-23T08:13:12.449Z,5.47
2018-05-23T08:15:40.933Z,5.30
2018-05-23T08:18:09.339Z,5.13
2018-05-23T08:20:37.681Z,5.23
2018-05-23T08:23:08.258Z,5.50
2018-05-23T08:25:36.618Z,4.33
2018-05-23T08:28:05.932Z,6.70
2018-05-23T08:30:34.353Z,4.60
2018-05-23T08:33:02.669Z,4.97
2018-05-23T08:35:31.002Z,4.60
2018-05-23T08:37:59.607Z,5.07
2018-05-23T08:40:27.907Z,4.80
2018-05-23T08:42:56.222Z,4.03
2018-05-23T08:45:24.564Z,3.80
2018-05-23T08:47:52.871Z,4.47
2018-05-23T08:50:21.196Z,4.77
2018-05-23T08:52:49.700Z,4.33
2018-05-23T08:55:18.009Z,3.97
2018-05-23T08:57:46.323Z,3.80
2018-05-23T09:00:14.739Z,4.27
2018-05-23T09:02:43.062Z,4.67
2018-05-23T09:05:11.392Z,4.03
2018-05-23T09:07:39.776Z,4.23
2018-05-23T09:10:08.107Z,3.37
2018-05-23T09:12:36.551Z,4.03
2018-05-23T09:15:05.649Z,3.23
2018-05-23T09:17:33.973Z,3.80
2018-05-23T09:20:02.304Z,4.23
2018-05-23T09:22:32.079Z,3.70
2018-05-23T09:25:00.395Z,3.70
2018-05-23T09:27:28.718Z,3.80
2018-05-23T09:29:57.921Z,3.57
2018-05-23T09:32:26.268Z,2.67
2018-05-23T09:34:54.592Z,3.40
2018-05-23T09:37:23.865Z,4.00
2018-05-23T09:39:52.170Z,3.60
2018-05-23T09:42:20.601Z,4.37
2018-05-23T09:44:49.750Z,3.80
2018-05-23T09:47:18.130Z,4.53
2018-05-23T09:49:46.557Z,3.20
2018-05-23T09:52:14.932Z,3.40
2018-05-23T09:54:43.248Z,3.83
2018-05-23T09:57:11.641Z,3.57
2018-05-23T09:59:40.113Z,3.33
2018-05-23T10:02:08.508Z,3.50
2018-05-23T10:04:37.080Z,4.20
2018-05-23T10:07:06.362Z,3.07
2018-05-23T10:09:34.729Z,3.73
2018-05-23T10:12:03.054Z,3.60
2018-05-23T10:14:31.437Z,3.70
2018-05-23T10:16:59.850Z,3.50
2018-05-23T10:19:28.170Z,4.50
2018-05-23T10:21:56.588Z,3.10
2018-05-23T10:24:24.915Z,3.87
2018-05-23T10:26:53.210Z,3.47
2018-05-23T10:29:21.574Z,3.30
2018-05-23T10:31:50.147Z,3.23
2018-05-23T10:34:18.534Z,2.83
2018-05-23T10:36:46.923Z,2.50
2018-05-23T10:39:15.299Z,2.97
2018-05-23T10:41:43.678Z,3.67
2018-05-23T10:44:12.806Z,3.17
2018-05-23T10:46:41.147Z,3.30
2018-05-23T10:49:09.487Z,2.87
2018-05-23T10:51:38.390Z,3.27
2018-05-23T10:54:06.570Z,3.67
2018-05-23T10:56:34.966Z,3.10
2018-05-23T10:59:03.349Z,3.00
2018-05-23T11:01:31.722Z,3.60
2018-05-23T11:04:00.045Z,3.03
2018-05-23T11:06:28.834Z,2.90
2018-05-23T11:08:57.175Z,3.57
2018-05-23T11:11:25.486Z,3.40
2018-05-23T11:13:54.276Z,2.17
2018-05-23T11:16:22.592Z,3.23
2018-05-23T11:18:50.905Z,3.03
2018-05-23T11:21:19.376Z,2.30
2018-05-23T11:23:47.677Z,2.70
2018-05-23T11:26:16.028Z,3.50
2018-05-23T11:28:45.157Z,3.03
2018-05-23T11:31:13.562Z,2.87
2018-05-23T11:33:42.059Z,2.77
2018-05-23T11:36:10.580Z,2.83
2018-05-23T11:38:39.197Z,2.80
2018-05-23T11:41:07.593Z,4.10
2018-05-23T11:43:36.061Z,3.50
2018-05-23T11:46:04.393Z,3.23
2018-05-23T11:48:33.405Z,2.60
2018-05-23T11:51:03.036Z,3.60
2018-05-23T11:53:31.390Z,3.00
2018-05-23T11:55:59.694Z,2.60
2018-05-23T11:58:28.590Z,3.13
2018-05-23T12:00:56.906Z,2.73
2018-05-23T12:03:25.246Z,3.60
2018-05-23T12:05:53.694Z,3.03
2018-05-23T12:08:22.017Z,3.03
2018-05-23T12:10:50.332Z,3.00
2018-05-23T12:13:19.655Z,3.30
2018-05-23T12:15:47.975Z,3.80
2018-05-23T12:18:16.430Z,2.90
2018-05-23T12:20:48.126Z,2.83
2018-05-23T12:23:25.260Z,3.07
2018-05-23T12:25:55.587Z,2.83
2018-05-23T12:28:24.024Z,2.83
2018-05-23T12:30:54.355Z,2.53
2018-05-23T12:33:25.709Z,2.43
2018-05-23T12:35:54.111Z,2.60
2018-05-23T12:38:22.395Z,2.60
2018-05-23T12:40:50.773Z,2.50
2018-05-23T12:43:22.878Z,2.93
2018-05-23T12:45:51.485Z,1.93
2018-05-23T12:48:20.218Z,2.37
2018-05-23T12:50:48.549Z,3.17
2018-05-23T12:53:17.503Z,2.87
2018-05-23T12:55:45.830Z,3.10
2018-05-23T12:58:14.206Z,2.70
2018-05-23T13:00:44.559Z,2.20
2018-05-23T13:03:12.909Z,2.20
2018-05-23T13:05:41.279Z,2.60
2018-05-23T13:08:09.652Z,2.87
2018-05-23T13:10:38.002Z,3.13
2018-05-23T13:13:06.349Z,2.50
2018-05-23T13:15:34.724Z,3.10
2018-05-23T13:18:03.074Z,3.03
2018-05-23T13:20:31.413Z,4.10
2018-05-23T13:23:00.544Z,3.00
2018-05-23T13:25:28.853Z,3.00
2018-05-23T13:27:57.161Z,2.60
2018-05-23T13:30:25.825Z,2.50
2018-05-23T13:32:54.225Z,2.40
2018-05-23T13:35:22.525Z,3.20
2018-05-23T13:37:50.918Z,2.67
2018-05-23T13:40:19.198Z,3.27
2018-05-23T13:42:47.540Z,2.53
2018-05-23T13:45:16.169Z,2.53
2018-05-23T13:47:47.768Z,3.20
2018-05-23T13:50:17.259Z,2.90
2018-05-23T13:52:45.615Z,3.83
2018-05-23T13:55:14.025Z,3.17
2018-05-23T13:57:43.191Z,2.47
2018-05-23T14:00:11.638Z,2.63
2018-05-23T14:02:39.968Z,2.77
2018-05-23T14:05:08.826Z,3.17
2018-05-23T14:07:37.181Z,2.83
2018-05-23T14:10:05.514Z,2.37
2018-05-23T14:12:33.895Z,2.77
2018-05-23T14:15:02.247Z,2.60
2018-05-23T14:17:30.567Z,2.90
2018-05-23T14:20:03.249Z,2.80
2018-05-23T14:22:33.384Z,2.20
2018-05-23T14:25:05.783Z,2.83
2018-05-23T14:27:34.368Z,3.20
2018-05-23T14:30:02.917Z,3.33
2018-05-23T14:32:32.188Z,2.53
2018-05-23T14:35:01.424Z,2.50
2018-05-23T14:37:35.150Z,2.83
2018-05-23T14:40:03.439Z,3.13
2018-05-23T14:42:31.781Z,2.90
2018-05-23T14:45:00.609Z,2.90
2018-05-23T14:47:28.943Z,2.97
2018-05-23T14:49:57.327Z,2.73
2018-05-23T14:52:25.676Z,3.80
2018-05-23T14:54:53.987Z,3.10
2018-05-23T14:57:22.293Z,2.83
2018-05-23T14:59:51.492Z,3.03
2018-05-23T15:02:19.911Z,2.77
2018-05-23T15:04:48.158Z,4.00
2018-05-23T15:07:16.792Z,2.63
2018-05-23T15:09:45.154Z,3.50
2018-05-23T15:12:13.498Z,3.20
2018-05-23T15:14:41.981Z,2.97
2018-05-23T15:17:10.488Z,3.03
2018-05-23T15:19:38.950Z,3.37
2018-05-23T15:22:07.418Z,3.70
2018-05-23T15:24:35.809Z,3.00
2018-05-23T15:27:04.129Z,3.23
2018-05-23T15:29:32.509Z,3.33
2018-05-23T15:32:00.885Z,3.20
2018-05-23T15:34:29.875Z,3.33
2018-05-23T15:36:59.833Z,2.53
2018-05-23T15:39:28.169Z,2.80
2018-05-23T15:41:56.487Z,2.70
2018-05-23T15:44:25.650Z,3.57
2018-05-23T15:46:53.997Z,2.33
2018-05-23T15:49:22.345Z,2.90
2018-05-23T15:51:51.509Z,2.90
2018-05-23T15:54:19.890Z,3.30
2018-05-23T15:56:48.207Z,2.53
2018-05-23T15:59:16.595Z,3.67
2018-05-23T16:01:45.082Z,3.60
2018-05-23T16:04:13.389Z,3.17
2018-05-23T16:06:42.163Z,3.13
2018-05-23T16:09:10.521Z,3.10
2018-05-23T16:11:39.066Z,2.63
2018-05-23T16:14:07.574Z,3.20
2018-05-23T16:16:36.045Z,3.40
2018-05-23T16:19:04.388Z,2.67
2018-05-23T16:21:33.151Z,3.50
2018-05-23T16:24:01.450Z,3.00
2018-05-23T16:26:29.818Z,3.47
2018-05-23T16:28:58.856Z,2.77
2018-05-23T16:31:27.153Z,3.43
2018-05-23T16:33:55.481Z,3.23
2018-05-23T16:36:23.996Z,3.33
2018-05-23T16:38:52.312Z,2.90
2018-05-23T16:41:20.658Z,3.83
2018-05-23T16:43:49.478Z,3.67
2018-05-23T16:46:18.050Z,3.43
2018-05-23T16:48:46.408Z,3.80
2018-05-23T16:51:15.469Z,2.73
2018-05-23T16:53:43.828Z,3.70
2018-05-23T16:56:12.188Z,6.07
2018-05-23T16:58:41.872Z,2.87
2018-05-23T17:01:10.299Z,2.97
2018-05-23T17:03:38.652Z,2.97
2018-05-23T17:06:07.315Z,2.90
2018-05-23T17:08:35.792Z,3.60
2018-05-23T17:11:04.123Z,3.70
2018-05-23T17:13:32.471Z,4.53
2018-05-23T17:16:00.861Z,2.53
2018-05-23T17:18:29.189Z,3.30
2018-05-23T17:20:57.636Z,3.20
2018-05-23T17:23:25.956Z,3.00
2018-05-23T17:25:54.410Z,2.77
2018-05-23T17:28:23.617Z,2.80
2018-05-23T17:30:51.918Z,3.13
2018-05-23T17:33:20.267Z,4.63
2018-05-23T17:35:49.575Z,3.37
2018-05-23T17:38:17.889Z,4.80
2018-05-23T17:40:46.419Z,3.17
2018-05-23T17:43:15.300Z,4.17
2018-05-23T17:45:43.705Z,3.40
2018-05-23T17:48:12.002Z,3.23
2018-05-23T17:50:40.402Z,3.20
2018-05-23T17:53:08.845Z,3.33
2018-05-23T17:55:38.053Z,2.80
2018-05-23T17:58:06.822Z,3.10
2018-05-23T18:00:35.245Z,3.40
2018-05-23T18:03:03.558Z,3.90
2018-05-23T18:05:31.893Z,3.13
2018-05-23T18:08:00.192Z,4.53
2018-05-23T18:10:28.550Z,2.73
2018-05-23T18:12:56.889Z,3.30
2018-05-23T18:15:25.254Z,4.00
2018-05-23T18:17:53.662Z,3.43
2018-05-23T18:20:23.359Z,4.67
2018-05-23T18:22:51.684Z,3.27
2018-05-23T18:25:20.007Z,3.70
2018-05-23T18:27:48.364Z,3.23
2018-05-23T18:30:16.772Z,5.97
2018-05-23T18:32:45.125Z,3.30
2018-05-23T18:35:13.581Z,3.97
2018-05-23T18:37:41.982Z,3.30
2018-05-23T18:40:10.561Z,5.00
2018-05-23T18:42:39.849Z,5.33
2018-05-23T18:45:08.298Z,5.50
2018-05-23T18:47:37.643Z,3.50
2018-05-23T18:50:07.683Z,5.20
2018-05-23T18:52:36.123Z,4.10
2018-05-23T18:55:04.458Z,3.10
2018-05-23T18:57:33.681Z,6.67
2018-05-23T19:00:02.014Z,4.40
2018-05-23T19:02:30.362Z,4.10
2018-05-23T19:04:59.583Z,4.10
2018-05-23T19:07:27.906Z,3.40
2018-05-23T19:09:56.247Z,3.60
2018-05-23T19:12:24.617Z,3.30
2018-05-23T19:14:52.948Z,3.83
2018-05-23T19:17:21.301Z,6.80
2018-05-23T19:19:49.931Z,3.60
2018-05-23T19:22:18.159Z,3.63
2018-05-23T19:24:46.584Z,3.73
2018-05-23T19:27:15.487Z,3.50
2018-05-23T19:29:43.908Z,2.87
2018-05-23T19:32:13.365Z,3.13
2018-05-23T19:34:42.839Z,3.23
2018-05-23T19:37:12.424Z,3.33
2018-05-23T19:39:51.406Z,4.90
2018-05-23T19:42:19.601Z,3.67
2018-05-23T19:44:47.959Z,5.30
2018-05-23T19:47:16.729Z,3.70
2018-05-23T19:49:45.032Z,4.00
2018-05-23T19:52:13.382Z,3.40
2018-05-23T19:54:41.952Z,3.37
2018-05-23T19:57:10.569Z,4.87
2018-05-23T19:59:38.904Z,4.53
2018-05-23T20:02:07.375Z,3.13
2018-05-23T20:04:35.801Z,3.77
2018-05-23T20:07:04.238Z,2.67
2018-05-23T20:09:32.611Z,2.87
2018-05-23T20:12:00.900Z,3.00
2018-05-23T20:14:29.583Z,3.73
2018-05-23T20:16:58.614Z,2.93
2018-05-23T20:19:28.030Z,2.67
2018-05-23T20:21:56.395Z,2.83
2018-05-23T20:24:24.811Z,3.37
2018-05-23T20:26:53.116Z,3.13
2018-05-23T20:29:21.548Z,3.83
2018-05-23T20:31:50.148Z,4.10
2018-05-23T20:34:18.559Z,3.70
2018-05-23T20:36:47.173Z,2.80
2018-05-23T20:39:20.395Z,2.83
2018-05-23T20:41:48.802Z,3.77
2018-05-23T20:44:18.048Z,4.37
2018-05-23T20:46:46.404Z,3.30
2018-05-23T20:49:15.301Z,3.37
2018-05-23T20:51:44.008Z,3.87
2018-05-23T20:54:12.409Z,3.73
2018-05-23T20:56:40.892Z,3.90
2018-05-23T20:59:13.337Z,3.53
2018-05-23T21:01:41.687Z,4.27
2018-05-23T21:04:10.318Z,3.73
2018-05-23T21:06:38.829Z,3.70
2018-05-23T21:09:07.327Z,3.43
2018-05-23T21:11:35.903Z,3.57
2018-05-23T21:14:04.933Z,3.63
2018-05-23T21:16:33.243Z,3.20
2018-05-23T21:19:01.593Z,2.90
2018-05-23T21:21:30.545Z,3.20
2018-05-23T21:23:58.894Z,4.03
2018-05-23T21:26:27.165Z,3.97
2018-05-23T21:28:55.547Z,5.00
2018-05-23T21:31:23.867Z,3.80
2018-05-23T21:33:52.175Z,3.80
2018-05-23T21:36:21.296Z,3.60
2018-05-23T21:38:49.607Z,2.93
2018-05-23T21:41:17.932Z,3.80
2018-05-23T21:43:46.306Z,3.33
2018-05-23T21:46:14.708Z,4.10
2018-05-23T21:48:43.050Z,3.83
2018-05-23T21:51:11.545Z,3.47
2018-05-23T21:53:39.825Z,4.00
2018-05-23T21:56:08.155Z,4.53
2018-05-23T21:58:36.884Z,3.30
2018-05-23T22:01:05.197Z,4.57
2018-05-23T22:03:33.525Z,3.70
2018-05-23T22:06:02.744Z,3.30
2018-05-23T22:08:31.067Z,4.20
2018-05-23T22:10:59.456Z,3.30
2018-05-23T22:13:27.800Z,3.33
2018-05-23T22:15:56.171Z,4.77
2018-05-23T22:18:24.548Z,3.57
2018-05-23T22:20:54.095Z,3.80
2018-05-23T22:23:22.403Z,4.30
2018-05-23T22:25:50.875Z,4.30
2018-05-23T22:28:19.972Z,4.20
2018-05-23T22:30:48.286Z,4.37
2018-05-23T22:33:16.684Z,4.23
2018-05-23T22:35:45.733Z,4.23
2018-05-23T22:38:14.142Z,4.47
2018-05-23T22:40:42.504Z,4.13
2018-05-23T22:43:11.302Z,3.37
2018-05-23T22:45:39.693Z,4.00
2018-05-23T22:48:08.047Z,3.70
2018-05-23T22:50:36.726Z,4.70
2018-05-23T22:53:05.396Z,4.70
2018-05-23T22:55:34.425Z,4.10
2018-05-23T22:58:03.858Z,3.90
2018-05-23T23:00:32.174Z,4.90
2018-05-23T23:03:00.477Z,4.70
2018-05-23T23:05:29.398Z,3.43
2018-05-23T23:07:57.724Z,3.83
2018-05-23T23:10:26.021Z,4.20
2018-05-23T23:12:54.920Z,4.57
2018-05-23T23:15:23.330Z,3.93
2018-05-23T23:17:51.656Z,3.47
2018-05-23T23:20:20.645Z,3.53
2018-05-23T23:22:48.935Z,3.93
2018-05-23T23:25:17.486Z,3.47
2018-05-23T23:27:46.989Z,3.30
2018-05-23T23:30:15.362Z,3.70
2018-05-23T23:32:43.741Z,3.13
2018-05-23T23:35:12.193Z,2.73
2018-05-23T23:37:40.596Z,3.30
2018-05-23T23:40:08.959Z,3.27
2018-05-23T23:42:37.453Z,3.07
2018-05-23T23:45:05.833Z,3.67
2018-05-23T23:47:34.165Z,2.70
2018-05-23T23:50:02.774Z,3.07
2018-05-23T23:52:31.117Z,3.70
2018-05-23T23:54:59.426Z,2.93
2018-05-23T23:57:27.753Z,3.50
2018-05-23T23:59:56.065Z,2.73
